createdAt,value
2023-05-06T00:00:15.142Z,10.77
2023-05-06T00:01:15.120Z,10.76
2023-05-06T00:02:22.045Z,10.77
2023-05-06T00:03:15.187Z,10.76
2023-05-06T00:04:15.101Z,10.77
2023-05-06T00:05:15.082Z,10.73
2023-05-06T00:06:15.407Z,10.74
2023-05-06T00:07:15.030Z,10.74
2023-05-06T00:08:15.024Z,10.76
2023-05-06T00:09:15.013Z,10.74
2023-05-06T00:10:15.027Z,10.74
2023-05-06T00:11:14.995Z,10.73
2023-05-06T00:12:15.981Z,10.74
2023-05-06T00:13:15.423Z,10.73
2023-05-06T00:14:14.987Z,10.73
2023-05-06T00:15:14.946Z,10.70
2023-05-06T00:16:15.036Z,10.70
2023-05-06T00:17:14.922Z,10.70
2023-05-06T00:18:14.964Z,10.68
2023-05-06T00:19:14.904Z,10.66
2023-05-06T00:20:15.187Z,10.65
2023-05-06T00:21:14.874Z,10.65
2023-05-06T00:22:14.876Z,10.65
2023-05-06T00:23:14.852Z,10.65
2023-05-06T00:24:14.893Z,10.62
2023-05-06T00:25:14.843Z,10.62
2023-05-06T00:26:14.853Z,10.60
2023-05-06T00:27:15.111Z,10.59
2023-05-06T00:28:14.833Z,10.56
2023-05-06T00:29:14.785Z,10.58
2023-05-06T00:30:14.874Z,10.56
2023-05-06T00:31:14.777Z,10.55
2023-05-06T00:32:14.816Z,10.55
2023-05-06T00:33:14.754Z,10.52
2023-05-06T00:34:15.050Z,10.51
2023-05-06T00:35:14.752Z,10.47
2023-05-06T00:36:14.784Z,10.46
2023-05-06T00:37:14.700Z,10.44
2023-05-06T00:38:14.716Z,10.44
2023-05-06T00:39:14.689Z,10.42
2023-05-06T00:40:14.701Z,10.40
2023-05-06T00:41:14.961Z,10.40
2023-05-06T00:42:14.719Z,10.39
2023-05-06T00:43:14.688Z,10.37
2023-05-06T00:44:14.646Z,10.33
2023-05-06T00:45:14.637Z,10.32
2023-05-06T00:46:14.720Z,10.28
2023-05-06T00:47:14.605Z,10.30
2023-05-06T00:48:14.989Z,10.28
2023-05-06T00:49:14.585Z,10.30
2023-05-06T00:50:14.579Z,10.32
2023-05-06T00:51:15.523Z,10.28
2023-05-06T00:52:14.551Z,10.30
2023-05-06T00:53:14.540Z,10.30
2023-05-06T00:54:14.568Z,10.28
2023-05-06T00:55:14.823Z,10.26
2023-05-06T00:56:14.541Z,10.28
2023-05-06T00:57:14.547Z,10.32
2023-05-06T00:58:14.492Z,10.37
2023-05-06T00:59:14.462Z,10.43
2023-05-06T01:00:14.502Z,10.46
2023-05-06T01:01:14.454Z,10.46
2023-05-06T01:02:14.843Z,10.47
2023-05-06T01:03:14.553Z,10.52
2023-05-06T01:04:14.452Z,10.52
2023-05-06T01:05:14.455Z,10.53
2023-05-06T01:06:14.455Z,10.55
2023-05-06T01:07:14.416Z,10.51
2023-05-06T01:08:14.397Z,10.51
2023-05-06T01:09:14.666Z,10.52
2023-05-06T01:10:14.375Z,10.52
2023-05-06T01:11:15.807Z,10.51
2023-05-06T01:12:14.448Z,10.52
2023-05-06T01:13:14.390Z,10.52
2023-05-06T01:14:14.318Z,10.51
2023-05-06T01:15:14.315Z,10.52
2023-05-06T01:16:14.579Z,10.52
2023-05-06T01:17:14.374Z,10.47
2023-05-06T01:18:14.318Z,10.46
2023-05-06T01:19:14.269Z,10.40
2023-05-06T01:20:14.269Z,10.36
2023-05-06T01:21:14.260Z,10.33
2023-05-06T01:22:14.245Z,10.26
2023-05-06T01:23:14.538Z,10.21
2023-05-06T01:24:14.239Z,10.15
2023-05-06T01:25:14.214Z,10.09
2023-05-06T01:26:14.193Z,10.06
2023-05-06T01:27:14.182Z,10.00
2023-05-06T01:28:14.187Z,9.99
2023-05-06T01:29:14.177Z,9.89
2023-05-06T01:30:14.495Z,9.88
2023-05-06T01:31:14.176Z,9.85
2023-05-06T01:32:14.124Z,9.81
2023-05-06T01:33:14.129Z,9.78
2023-05-06T01:34:14.109Z,9.75
2023-05-06T01:35:14.083Z,9.73
2023-05-06T01:36:14.093Z,9.70
2023-05-06T01:37:14.051Z,9.68
2023-05-06T01:38:14.051Z,9.67
2023-05-06T01:39:14.050Z,9.66
2023-05-06T01:40:14.019Z,9.63
2023-05-06T01:41:14.004Z,9.61
2023-05-06T01:42:15.330Z,9.57
2023-05-06T01:43:14.516Z,9.53
2023-05-06T01:44:13.993Z,9.50
2023-05-06T01:45:13.986Z,9.50
2023-05-06T01:46:13.998Z,9.48
2023-05-06T01:47:13.981Z,9.43
2023-05-06T01:48:13.997Z,9.42
2023-05-06T01:49:13.938Z,9.42
2023-05-06T01:50:13.951Z,9.39
2023-05-06T01:51:13.929Z,9.38
2023-05-06T01:52:13.926Z,9.40
2023-05-06T01:53:16.605Z,9.40
2023-05-06T01:54:14.242Z,9.42
2023-05-06T01:55:13.876Z,9.40
2023-05-06T01:56:13.887Z,9.40
2023-05-06T01:57:13.867Z,9.39
2023-05-06T01:58:13.872Z,9.35
2023-05-06T01:59:13.841Z,9.34
2023-05-06T02:00:14.181Z,9.32
2023-05-06T02:01:13.854Z,9.30
2023-05-06T02:02:13.793Z,9.28
2023-05-06T02:03:13.812Z,9.27
2023-05-06T02:04:13.785Z,9.25
2023-05-06T02:05:13.764Z,9.24
2023-05-06T02:06:13.798Z,9.23
2023-05-06T02:07:14.021Z,9.21
2023-05-06T02:08:13.745Z,9.18
2023-05-06T02:09:13.742Z,9.18
2023-05-06T02:10:13.732Z,9.15
2023-05-06T02:11:13.714Z,9.12
2023-05-06T02:12:13.742Z,9.10
2023-05-06T02:13:13.775Z,9.09
2023-05-06T02:14:13.984Z,9.06
2023-05-06T02:15:13.661Z,9.10
2023-05-06T02:16:13.676Z,9.06
2023-05-06T02:17:13.645Z,9.09
2023-05-06T02:18:13.674Z,9.10
2023-05-06T02:19:13.625Z,9.12
2023-05-06T02:20:13.620Z,9.13
2023-05-06T02:21:13.897Z,9.13
2023-05-06T02:22:13.587Z,9.16
2023-05-06T02:23:13.580Z,9.16
2023-05-06T02:24:13.626Z,9.16
2023-05-06T02:25:13.559Z,9.20
2023-05-06T02:26:13.556Z,9.20
2023-05-06T02:27:13.539Z,9.21
2023-05-06T02:28:13.832Z,9.21
2023-05-06T02:29:13.541Z,9.23
2023-05-06T02:30:13.542Z,9.20
2023-05-06T02:31:13.526Z,9.20
2023-05-06T02:32:13.489Z,9.21
2023-05-06T02:33:13.488Z,9.18
2023-05-06T02:34:13.462Z,9.18
2023-05-06T02:35:13.730Z,9.16
2023-05-06T02:36:13.493Z,9.13
2023-05-06T02:37:13.451Z,9.12
2023-05-06T02:38:13.422Z,9.12
2023-05-06T02:39:13.421Z,9.10
2023-05-06T02:40:13.418Z,9.06
2023-05-06T02:41:13.435Z,9.05
2023-05-06T02:42:13.747Z,9.01
2023-05-06T02:43:13.369Z,8.99
2023-05-06T02:44:13.350Z,8.96
2023-05-06T02:45:13.362Z,8.91
2023-05-06T02:46:13.405Z,8.87
2023-05-06T02:47:13.340Z,8.84
2023-05-06T02:48:13.362Z,8.83
2023-05-06T02:49:13.604Z,8.78
2023-05-06T02:50:13.295Z,8.78
2023-05-06T02:51:13.283Z,8.73
2023-05-06T02:52:13.284Z,8.72
2023-05-06T02:53:13.358Z,8.71
2023-05-06T02:54:15.731Z,8.66
2023-05-06T02:55:13.241Z,8.68
2023-05-06T02:56:13.551Z,8.63
2023-05-06T02:57:13.220Z,8.62
2023-05-06T02:58:13.213Z,8.60
2023-05-06T02:59:13.207Z,8.58
2023-05-06T03:00:13.267Z,8.57
2023-05-06T03:01:13.226Z,8.54
2023-05-06T03:02:13.168Z,8.54
2023-05-06T03:03:13.434Z,8.51
2023-05-06T03:04:13.201Z,8.51
2023-05-06T03:05:13.129Z,8.53
2023-05-06T03:06:13.151Z,8.58
2023-05-06T03:07:13.107Z,8.65
2023-05-06T03:08:13.133Z,8.65
2023-05-06T03:09:13.087Z,8.66
2023-05-06T03:10:13.365Z,8.69
2023-05-06T03:11:13.076Z,8.69
2023-05-06T03:12:13.099Z,8.71
2023-05-06T03:13:13.105Z,8.72
2023-05-06T03:14:19.557Z,8.73
2023-05-06T03:15:13.165Z,8.71
2023-05-06T03:16:13.048Z,8.73
2023-05-06T03:17:13.295Z,8.75
2023-05-06T03:18:13.087Z,8.76
2023-05-06T03:19:12.982Z,8.78
2023-05-06T03:20:12.987Z,8.79
2023-05-06T03:21:13.072Z,8.81
2023-05-06T03:22:13.171Z,8.87
2023-05-06T03:23:12.927Z,8.94
2023-05-06T03:24:13.308Z,8.97
2023-05-06T03:25:12.978Z,8.99
2023-05-06T03:26:12.913Z,9.02
2023-05-06T03:27:12.922Z,9.04
2023-05-06T03:28:12.892Z,9.05
2023-05-06T03:29:12.883Z,9.05
2023-05-06T03:30:12.931Z,9.04
2023-05-06T03:31:13.201Z,9.04
2023-05-06T03:32:12.846Z,9.01
2023-05-06T03:33:12.844Z,9.01
2023-05-06T03:34:12.840Z,8.99
2023-05-06T03:35:12.827Z,8.96
2023-05-06T03:36:12.856Z,8.96
2023-05-06T03:37:12.802Z,8.94
2023-05-06T03:38:13.057Z,8.91
2023-05-06T03:39:12.773Z,8.88
2023-05-06T03:40:12.764Z,8.90
2023-05-06T03:41:12.752Z,8.87
2023-05-06T03:42:12.836Z,8.84
2023-05-06T03:43:12.712Z,8.83
2023-05-06T03:44:12.749Z,8.83
2023-05-06T03:45:13.281Z,8.81
2023-05-06T03:46:12.752Z,8.81
2023-05-06T03:47:12.685Z,8.78
2023-05-06T03:48:12.740Z,8.78
2023-05-06T03:49:12.680Z,8.78
2023-05-06T03:50:12.686Z,8.73
2023-05-06T03:51:12.635Z,8.66
2023-05-06T03:52:12.907Z,8.62
2023-05-06T03:53:12.618Z,8.62
2023-05-06T03:54:12.663Z,8.58
2023-05-06T03:55:12.651Z,8.54
2023-05-06T03:56:12.611Z,8.50
2023-05-06T03:57:12.593Z,8.50
2023-05-06T03:58:12.578Z,8.48
2023-05-06T03:59:12.852Z,8.50
2023-05-06T04:00:12.607Z,8.47
2023-05-06T04:01:12.536Z,8.48
2023-05-06T04:02:12.722Z,8.47
2023-05-06T04:03:12.630Z,8.45
2023-05-06T04:04:12.600Z,8.47
2023-05-06T04:05:12.688Z,8.47
2023-05-06T04:06:12.817Z,8.44
2023-05-06T04:07:12.474Z,8.40
2023-05-06T04:08:12.499Z,8.37
2023-05-06T04:09:12.459Z,8.37
2023-05-06T04:10:12.454Z,8.37
2023-05-06T04:11:12.428Z,8.39
2023-05-06T04:12:12.493Z,8.40
2023-05-06T04:13:12.768Z,8.40
2023-05-06T04:14:12.394Z,8.44
2023-05-06T04:15:12.519Z,8.45
2023-05-06T04:16:12.417Z,8.47
2023-05-06T04:17:12.364Z,8.48
2023-05-06T04:18:12.394Z,8.48
2023-05-06T04:19:12.343Z,8.48
2023-05-06T04:20:12.653Z,8.47
2023-05-06T04:21:12.332Z,8.51
2023-05-06T04:22:12.309Z,8.50
2023-05-06T04:23:12.299Z,8.53
2023-05-06T04:24:12.341Z,8.55
2023-05-06T04:25:12.673Z,8.58
2023-05-06T04:26:12.270Z,8.60
2023-05-06T04:27:12.550Z,8.62
2023-05-06T04:28:12.253Z,8.63
2023-05-06T04:29:12.260Z,8.63
2023-05-06T04:30:12.275Z,8.68
2023-05-06T04:31:12.227Z,8.68
2023-05-06T04:32:12.233Z,8.72
2023-05-06T04:33:12.249Z,8.73
2023-05-06T04:34:12.482Z,8.75
2023-05-06T04:35:12.302Z,8.76
2023-05-06T04:36:12.204Z,8.81
2023-05-06T04:37:12.163Z,8.84
2023-05-06T04:38:12.150Z,8.87
2023-05-06T04:39:12.258Z,8.88
2023-05-06T04:40:12.179Z,8.90
2023-05-06T04:41:12.396Z,8.91
2023-05-06T04:42:12.133Z,8.93
2023-05-06T04:43:12.100Z,8.96
2023-05-06T04:44:12.096Z,8.99
2023-05-06T04:45:12.216Z,9.01
2023-05-06T04:46:12.113Z,9.05
2023-05-06T04:47:12.090Z,9.04
2023-05-06T04:48:12.377Z,8.97
2023-05-06T04:49:12.586Z,8.94
2023-05-06T04:50:12.028Z,8.93
2023-05-06T04:51:12.017Z,8.91
2023-05-06T04:52:11.999Z,8.91
2023-05-06T04:53:12.007Z,8.88
2023-05-06T04:54:12.024Z,8.88
2023-05-06T04:55:12.496Z,8.87
2023-05-06T04:56:11.972Z,8.87
2023-05-06T04:57:11.970Z,8.84
2023-05-06T04:58:11.938Z,8.87
2023-05-06T04:59:11.929Z,8.90
2023-05-06T05:00:12.115Z,8.93
2023-05-06T05:01:11.948Z,8.96
2023-05-06T05:02:12.188Z,8.99
2023-05-06T05:03:12.016Z,9.02
2023-05-06T05:04:11.868Z,9.06
2023-05-06T05:05:15.161Z,9.06
2023-05-06T05:06:11.893Z,9.13
2023-05-06T05:07:11.846Z,9.18
2023-05-06T05:08:11.847Z,9.21
2023-05-06T05:09:12.123Z,9.27
2023-05-06T05:10:11.803Z,9.30
2023-05-06T05:11:11.798Z,9.32
2023-05-06T05:12:11.815Z,9.35
2023-05-06T05:13:11.809Z,9.38
2023-05-06T05:14:11.763Z,9.32
2023-05-06T05:15:11.962Z,9.28
2023-05-06T05:16:12.030Z,9.28
2023-05-06T05:17:11.836Z,9.27
2023-05-06T05:18:11.913Z,9.27
2023-05-06T05:19:11.730Z,9.28
2023-05-06T05:20:11.716Z,9.31
2023-05-06T05:21:11.700Z,9.31
2023-05-06T05:22:11.710Z,9.31
2023-05-06T05:23:11.962Z,9.32
2023-05-06T05:24:11.705Z,9.35
2023-05-06T05:25:11.953Z,9.38
2023-05-06T05:26:11.635Z,9.39
2023-05-06T05:27:11.667Z,9.43
2023-05-06T05:28:11.609Z,9.46
2023-05-06T05:29:11.617Z,9.50
2023-05-06T05:30:11.952Z,9.49
2023-05-06T05:31:11.624Z,9.50
2023-05-06T05:32:11.576Z,9.50
2023-05-06T05:33:11.644Z,9.49
2023-05-06T05:34:11.544Z,9.50
2023-05-06T05:35:11.902Z,9.53
2023-05-06T05:36:11.586Z,9.57
2023-05-06T05:37:11.815Z,9.63
2023-05-06T05:38:11.528Z,9.63
2023-05-06T05:39:11.549Z,9.70
2023-05-06T05:40:11.502Z,9.75
2023-05-06T05:41:11.498Z,9.79
2023-05-06T05:42:11.503Z,9.81
2023-05-06T05:43:11.480Z,9.86
2023-05-06T05:44:11.714Z,9.85
2023-05-06T05:45:11.515Z,9.83
2023-05-06T05:46:11.456Z,9.85
2023-05-06T05:47:11.431Z,9.86
2023-05-06T05:48:11.433Z,9.83
2023-05-06T05:49:11.400Z,9.78
2023-05-06T05:50:11.591Z,9.78
2023-05-06T05:51:12.188Z,9.78
2023-05-06T05:52:11.677Z,9.78
2023-05-06T05:53:11.700Z,9.75
2023-05-06T05:54:11.396Z,9.67
2023-05-06T05:55:11.475Z,9.67
2023-05-06T05:56:11.320Z,9.73
2023-05-06T05:57:11.322Z,9.76
2023-05-06T05:58:11.636Z,9.81
2023-05-06T05:59:11.398Z,9.86
2023-05-06T06:00:14.812Z,9.91
2023-05-06T06:01:11.433Z,9.97
2023-05-06T06:02:11.358Z,10.06
2023-05-06T06:03:11.457Z,10.06
2023-05-06T06:04:11.395Z,10.04
2023-05-06T06:05:11.832Z,10.01
2023-05-06T06:06:11.416Z,10.01
2023-05-06T06:07:11.300Z,10.03
2023-05-06T06:08:11.363Z,10.03
2023-05-06T06:09:11.365Z,9.96
2023-05-06T06:10:11.296Z,9.85
2023-05-06T06:11:11.248Z,9.79
2023-05-06T06:12:11.664Z,9.79
2023-05-06T06:13:11.336Z,9.79
2023-05-06T06:14:11.339Z,9.78
2023-05-06T06:15:11.464Z,9.79
2023-05-06T06:16:11.225Z,9.79
2023-05-06T06:17:11.211Z,9.83
2023-05-06T06:18:11.180Z,9.86
2023-05-06T06:19:11.380Z,9.88
2023-05-06T06:20:11.078Z,9.91
2023-05-06T06:21:11.073Z,9.94
2023-05-06T06:22:11.052Z,10.01
2023-05-06T06:23:11.050Z,10.04
2023-05-06T06:24:11.078Z,10.03
2023-05-06T06:25:11.214Z,10.06
2023-05-06T06:26:12.438Z,10.12
2023-05-06T06:27:11.010Z,10.21
2023-05-06T06:28:11.003Z,10.30
2023-05-06T06:29:11.001Z,10.26
2023-05-06T06:30:11.002Z,10.26
2023-05-06T06:31:10.977Z,10.28
2023-05-06T06:32:11.062Z,10.28
2023-05-06T06:33:11.227Z,10.32
2023-05-06T06:34:10.928Z,10.34
2023-05-06T06:35:11.078Z,10.39
2023-05-06T06:36:11.000Z,10.40
2023-05-06T06:37:10.923Z,10.42
2023-05-06T06:38:10.911Z,10.47
2023-05-06T06:39:10.889Z,10.59
2023-05-06T06:40:11.177Z,10.65
2023-05-06T06:41:10.856Z,10.73
2023-05-06T06:42:10.904Z,10.74
2023-05-06T06:43:10.849Z,10.68
2023-05-06T06:44:10.826Z,10.70
2023-05-06T06:45:11.097Z,10.71
2023-05-06T06:46:10.884Z,10.71
2023-05-06T06:47:11.093Z,10.74
2023-05-06T06:48:10.887Z,10.80
2023-05-06T06:49:10.787Z,10.84
2023-05-06T06:50:10.809Z,10.86
2023-05-06T06:51:10.764Z,10.91
2023-05-06T06:52:10.728Z,10.95
2023-05-06T06:53:10.739Z,11.02
2023-05-06T06:54:11.140Z,11.09
2023-05-06T06:55:10.942Z,11.14
2023-05-06T06:56:10.693Z,11.16
2023-05-06T06:57:10.696Z,11.09
2023-05-06T06:58:10.706Z,11.11
2023-05-06T06:59:10.688Z,11.11
2023-05-06T07:00:10.718Z,11.06
2023-05-06T07:01:11.088Z,11.01
2023-05-06T07:02:10.634Z,10.95
2023-05-06T07:03:10.661Z,11.01
2023-05-06T07:04:10.633Z,11.09
2023-05-06T07:05:10.807Z,11.16
2023-05-06T07:06:10.659Z,11.28
2023-05-06T07:07:10.575Z,11.38
2023-05-06T07:08:10.846Z,11.41
2023-05-06T07:09:10.590Z,11.39
2023-05-06T07:10:10.554Z,11.31
2023-05-06T07:11:10.565Z,11.29
2023-05-06T07:12:10.584Z,11.31
2023-05-06T07:13:10.597Z,11.34
2023-05-06T07:14:10.596Z,11.41
2023-05-06T07:15:10.947Z,11.39
2023-05-06T07:16:10.480Z,11.43
2023-05-06T07:17:10.629Z,11.43
2023-05-06T07:18:10.589Z,11.52
2023-05-06T07:19:10.745Z,11.59
2023-05-06T07:20:10.446Z,11.57
2023-05-06T07:21:10.490Z,11.56
2023-05-06T07:22:10.893Z,11.64
2023-05-06T07:23:10.739Z,11.74
2023-05-06T07:24:10.468Z,11.85
2023-05-06T07:25:10.839Z,11.96
2023-05-06T07:26:10.471Z,12.02
2023-05-06T07:27:10.454Z,12.02
2023-05-06T07:28:10.360Z,11.99
2023-05-06T07:29:10.784Z,11.94
2023-05-06T07:30:10.562Z,11.97
2023-05-06T07:31:10.471Z,11.99
2023-05-06T07:32:10.385Z,12.09
2023-05-06T07:33:10.435Z,12.19
2023-05-06T07:34:10.411Z,12.23
2023-05-06T07:35:10.808Z,12.15
2023-05-06T07:36:10.749Z,12.13
2023-05-06T07:37:10.357Z,12.20
2023-05-06T07:38:10.463Z,12.33
2023-05-06T07:39:10.319Z,12.51
2023-05-06T07:40:10.329Z,12.69
2023-05-06T07:41:10.264Z,12.89
2023-05-06T07:42:10.377Z,13.02
2023-05-06T07:43:10.269Z,13.07
2023-05-06T07:44:10.274Z,12.99
2023-05-06T07:45:10.419Z,12.99
2023-05-06T07:46:10.349Z,13.04
2023-05-06T07:47:10.341Z,13.14
2023-05-06T07:48:10.575Z,13.24
2023-05-06T07:49:10.204Z,13.33
2023-05-06T07:50:10.257Z,13.43
2023-05-06T07:51:10.223Z,13.62
2023-05-06T07:52:10.179Z,13.88
2023-05-06T07:53:10.249Z,14.02
2023-05-06T07:54:10.215Z,14.43
2023-05-06T07:55:10.332Z,14.83
2023-05-06T07:56:10.131Z,14.69
2023-05-06T07:57:10.125Z,14.67
2023-05-06T07:58:10.106Z,14.61
2023-05-06T07:59:10.151Z,14.62
2023-05-06T08:00:10.388Z,14.68
2023-05-06T08:01:10.067Z,14.84
2023-05-06T08:02:10.090Z,15.17
2023-05-06T08:03:10.200Z,15.27
2023-05-06T08:04:10.139Z,15.23
2023-05-06T08:05:10.128Z,15.24
2023-05-06T08:06:10.100Z,15.36
2023-05-06T08:07:10.371Z,15.48
2023-05-06T08:08:10.011Z,15.49
2023-05-06T08:09:11.399Z,15.56
2023-05-06T08:10:09.973Z,15.70
2023-05-06T08:11:09.969Z,15.92
2023-05-06T08:12:09.979Z,15.86
2023-05-06T08:13:09.985Z,15.88
2023-05-06T08:14:10.204Z,15.86
2023-05-06T08:15:10.164Z,16.14
2023-05-06T08:16:09.987Z,16.26
2023-05-06T08:17:09.894Z,16.30
2023-05-06T08:18:21.068Z,16.09
2023-05-06T08:19:09.921Z,16.20
2023-05-06T08:20:09.859Z,16.67
2023-05-06T08:21:10.124Z,16.62
2023-05-06T08:22:09.905Z,16.86
2023-05-06T08:23:09.852Z,17.23
2023-05-06T08:24:09.877Z,17.46
2023-05-06T08:25:10.067Z,17.28
2023-05-06T08:26:09.799Z,17.06
2023-05-06T08:27:09.782Z,17.06
2023-05-06T08:28:10.072Z,16.86
2023-05-06T08:29:09.819Z,17.08
2023-05-06T08:30:09.865Z,17.20
2023-05-06T08:31:09.726Z,17.32
2023-05-06T08:32:09.829Z,17.17
2023-05-06T08:33:09.743Z,17.50
2023-05-06T08:34:09.756Z,17.57
2023-05-06T08:35:10.264Z,17.15
2023-05-06T08:36:09.719Z,17.13
2023-05-06T08:37:09.684Z,17.29
2023-05-06T08:38:09.650Z,17.59
2023-05-06T08:39:09.673Z,17.62
2023-05-06T08:40:09.707Z,17.43
2023-05-06T08:41:09.710Z,17.25
2023-05-06T08:42:10.010Z,17.15
2023-05-06T08:43:09.637Z,17.15
2023-05-06T08:44:09.617Z,17.44
2023-05-06T08:45:09.828Z,17.69
2023-05-06T08:46:09.712Z,17.97
2023-05-06T08:47:09.592Z,18.18
2023-05-06T08:48:09.737Z,18.12
2023-05-06T08:49:09.838Z,17.92
2023-05-06T08:50:09.539Z,17.74
2023-05-06T08:51:09.535Z,17.29
2023-05-06T08:52:09.572Z,17.20
2023-05-06T08:53:09.541Z,17.20
2023-05-06T08:54:09.601Z,17.63
2023-05-06T08:55:09.952Z,17.81
2023-05-06T08:56:09.751Z,17.81
2023-05-06T08:57:11.605Z,17.66
2023-05-06T08:58:09.469Z,17.63
2023-05-06T08:59:09.648Z,17.62
2023-05-06T09:00:09.543Z,17.38
2023-05-06T09:01:09.477Z,17.53
2023-05-06T09:02:09.440Z,17.99
2023-05-06T09:03:09.780Z,18.28
2023-05-06T09:04:09.394Z,18.55
2023-05-06T09:05:09.821Z,18.82
2023-05-06T09:06:09.486Z,19.05
2023-05-06T09:07:09.436Z,19.02
2023-05-06T09:08:09.452Z,19.01
2023-05-06T09:09:09.408Z,18.97
2023-05-06T09:10:09.873Z,19.13
2023-05-06T09:11:09.336Z,19.29
2023-05-06T09:12:09.360Z,19.58
2023-05-06T09:13:09.321Z,19.61
2023-05-06T09:14:09.289Z,19.43
2023-05-06T09:15:09.661Z,19.11
2023-05-06T09:16:09.374Z,18.92
2023-05-06T09:17:09.570Z,18.87
2023-05-06T09:18:09.333Z,19.01
2023-05-06T09:19:09.299Z,19.14
2023-05-06T09:20:09.288Z,19.40
2023-05-06T09:21:09.238Z,19.38
2023-05-06T09:22:09.313Z,19.35
2023-05-06T09:23:09.284Z,19.58
2023-05-06T09:24:09.610Z,19.68
2023-05-06T09:25:09.348Z,19.66
2023-05-06T09:26:09.216Z,19.50
2023-05-06T09:27:10.679Z,19.48
2023-05-06T09:28:09.173Z,19.60
2023-05-06T09:29:09.210Z,19.70
2023-05-06T09:30:09.313Z,19.66
2023-05-06T09:31:09.588Z,19.69
2023-05-06T09:32:09.129Z,19.65
2023-05-06T09:33:09.282Z,19.66
2023-05-06T09:34:09.112Z,19.79
2023-05-06T09:35:09.396Z,19.65
2023-05-06T09:36:09.219Z,19.50
2023-05-06T09:37:09.063Z,19.36
2023-05-06T09:38:09.325Z,19.43
2023-05-06T09:39:09.019Z,19.40
2023-05-06T09:40:09.084Z,19.61
2023-05-06T09:41:09.065Z,19.69
2023-05-06T09:42:09.045Z,19.90
2023-05-06T09:43:09.017Z,20.10
2023-05-06T09:44:09.012Z,20.18
2023-05-06T09:45:09.488Z,20.27
2023-05-06T09:46:09.086Z,20.20
2023-05-06T09:47:08.958Z,20.31
2023-05-06T09:48:09.339Z,20.50
2023-05-06T09:49:09.026Z,20.47
2023-05-06T09:50:08.937Z,20.35
2023-05-06T09:51:08.906Z,20.25
2023-05-06T09:52:09.272Z,20.33
2023-05-06T09:53:08.877Z,20.53
2023-05-06T09:54:08.940Z,20.61
2023-05-06T09:55:09.294Z,20.69
2023-05-06T09:56:08.923Z,20.49
2023-05-06T09:57:08.854Z,20.27
2023-05-06T09:58:15.707Z,20.18
2023-05-06T09:59:09.186Z,20.33
2023-05-06T10:00:08.981Z,20.23
2023-05-06T10:01:08.982Z,20.47
2023-05-06T10:02:08.897Z,20.53
2023-05-06T10:03:09.086Z,20.72
2023-05-06T10:04:09.161Z,20.66
2023-05-06T10:05:09.155Z,20.66
2023-05-06T10:06:09.268Z,20.68
2023-05-06T10:07:08.881Z,20.72
2023-05-06T10:08:08.815Z,21.01
2023-05-06T10:09:08.804Z,21.20
2023-05-06T10:10:08.785Z,21.01
2023-05-06T10:11:08.848Z,21.01
2023-05-06T10:12:08.906Z,20.86
2023-05-06T10:13:09.215Z,20.89
2023-05-06T10:14:08.843Z,21.02
2023-05-06T10:15:09.174Z,21.04
2023-05-06T10:16:08.814Z,21.05
2023-05-06T10:17:08.694Z,21.02
2023-05-06T10:18:08.812Z,21.24
2023-05-06T10:19:08.673Z,21.35
2023-05-06T10:20:08.652Z,21.44
2023-05-06T10:21:08.706Z,21.42
2023-05-06T10:22:08.623Z,21.53
2023-05-06T10:23:08.613Z,21.36
2023-05-06T10:24:08.761Z,21.45
2023-05-06T10:25:08.928Z,21.46
2023-05-06T10:26:08.881Z,21.51
2023-05-06T10:27:08.585Z,21.51
2023-05-06T10:28:13.706Z,21.59
2023-05-06T10:29:08.673Z,21.83
2023-05-06T10:30:08.613Z,22.12
2023-05-06T10:31:08.609Z,22.20
2023-05-06T10:32:08.528Z,22.39
2023-05-06T10:33:08.827Z,22.31
2023-05-06T10:34:08.477Z,22.14
2023-05-06T10:35:08.604Z,22.23
2023-05-06T10:36:08.544Z,22.39
2023-05-06T10:37:08.504Z,22.47
2023-05-06T10:38:08.427Z,22.65
2023-05-06T10:39:08.498Z,22.89
2023-05-06T10:40:08.776Z,22.75
2023-05-06T10:41:08.394Z,22.60
2023-05-06T10:42:08.406Z,22.57
2023-05-06T10:43:08.447Z,22.77
2023-05-06T10:44:08.417Z,22.96
2023-05-06T10:45:08.535Z,23.05
2023-05-06T10:46:08.416Z,23.01
2023-05-06T10:47:08.668Z,22.87
2023-05-06T10:48:08.425Z,22.67
2023-05-06T10:49:08.376Z,22.71
2023-05-06T10:50:08.309Z,22.71
2023-05-06T10:51:08.308Z,22.54
2023-05-06T10:52:08.288Z,22.31
2023-05-06T10:53:08.328Z,22.37
2023-05-06T10:54:08.315Z,22.64
2023-05-06T10:55:08.547Z,22.90
2023-05-06T10:56:08.528Z,22.99
2023-05-06T10:57:08.281Z,23.23
2023-05-06T10:58:08.266Z,23.57
2023-05-06T10:59:08.330Z,23.76
2023-05-06T11:00:08.253Z,23.82
2023-05-06T11:01:08.367Z,23.92
2023-05-06T11:02:08.264Z,23.75
2023-05-06T11:03:08.604Z,23.43
2023-05-06T11:04:08.204Z,23.43
2023-05-06T11:05:08.248Z,23.39
2023-05-06T11:06:08.267Z,23.02
2023-05-06T11:07:08.169Z,23.17
2023-05-06T11:08:08.154Z,23.46
2023-05-06T11:09:08.306Z,23.57
2023-05-06T11:10:08.449Z,23.34
2023-05-06T11:11:08.113Z,23.20
2023-05-06T11:12:08.162Z,23.04
2023-05-06T11:13:08.208Z,22.72
2023-05-06T11:14:08.058Z,22.38
2023-05-06T11:15:08.312Z,22.74
2023-05-06T11:16:08.066Z,23.02
2023-05-06T11:17:09.452Z,23.40
2023-05-06T11:18:08.204Z,23.43
2023-05-06T11:19:08.012Z,23.75
2023-05-06T11:20:08.230Z,23.83
2023-05-06T11:21:08.055Z,23.97
2023-05-06T11:22:08.034Z,24.20
2023-05-06T11:23:07.973Z,23.98
2023-05-06T11:24:08.012Z,23.61
2023-05-06T11:25:08.041Z,23.17
2023-05-06T11:26:07.997Z,23.42
2023-05-06T11:27:07.960Z,23.72
2023-05-06T11:28:07.971Z,24.13
2023-05-06T11:29:07.972Z,24.31
2023-05-06T11:30:08.200Z,24.13
2023-05-06T11:31:08.090Z,23.55
2023-05-06T11:32:07.908Z,23.08
2023-05-06T11:33:07.906Z,22.69
2023-05-06T11:34:07.888Z,22.27
2023-05-06T11:35:07.860Z,22.12
2023-05-06T11:36:08.255Z,22.02
2023-05-06T11:37:07.926Z,22.19
2023-05-06T11:38:07.946Z,22.83
2023-05-06T11:39:07.836Z,23.29
2023-05-06T11:40:07.796Z,23.71
2023-05-06T11:41:07.830Z,24.20
2023-05-06T11:42:07.873Z,24.75
2023-05-06T11:43:07.807Z,25.13
2023-05-06T11:44:09.708Z,25.32
2023-05-06T11:45:07.745Z,24.88
2023-05-06T11:46:07.736Z,24.94
2023-05-06T11:47:07.791Z,24.76
2023-05-06T11:48:08.049Z,24.39
2023-05-06T11:49:07.699Z,24.08
2023-05-06T11:50:07.858Z,23.83
2023-05-06T11:51:07.721Z,23.57
2023-05-06T11:52:07.690Z,23.39
2023-05-06T11:53:07.681Z,23.05
2023-05-06T11:54:07.680Z,23.57
2023-05-06T11:55:07.657Z,24.12
2023-05-06T11:56:07.649Z,24.49
2023-05-06T11:57:07.754Z,24.82
2023-05-06T11:58:07.636Z,24.56
2023-05-06T11:59:09.262Z,24.56
2023-05-06T12:00:08.002Z,24.29
2023-05-06T12:01:07.620Z,24.29
2023-05-06T12:02:07.591Z,24.13
2023-05-06T12:03:07.746Z,23.97
2023-05-06T12:04:07.759Z,24.02
2023-05-06T12:05:07.623Z,24.23
2023-05-06T12:06:07.586Z,24.45
2023-05-06T12:07:07.837Z,24.52
2023-05-06T12:08:13.458Z,24.53
2023-05-06T12:09:07.505Z,24.68
2023-05-06T12:10:07.484Z,24.79
2023-05-06T12:11:07.452Z,24.49
2023-05-06T12:12:07.516Z,24.87
2023-05-06T12:13:07.544Z,25.17
2023-05-06T12:14:07.720Z,25.24
2023-05-06T12:15:07.525Z,25.61
2023-05-06T12:16:07.428Z,25.65
2023-05-06T12:17:07.450Z,25.42
2023-05-06T12:18:07.654Z,25.19
2023-05-06T12:19:07.376Z,25.22
2023-05-06T12:20:07.413Z,25.47
2023-05-06T12:21:07.697Z,25.30
2023-05-06T12:22:07.363Z,24.94
2023-05-06T12:23:07.375Z,24.23
2023-05-06T12:24:07.506Z,23.90
2023-05-06T12:25:07.335Z,24.02
2023-05-06T12:26:07.469Z,24.08
2023-05-06T12:27:07.309Z,24.34
2023-05-06T12:28:07.568Z,24.52
2023-05-06T12:29:07.332Z,24.52
2023-05-06T12:30:07.323Z,24.47
2023-05-06T12:31:07.323Z,24.34
2023-05-06T12:32:07.388Z,23.92
2023-05-06T12:33:07.343Z,23.50
2023-05-06T12:34:07.272Z,23.20
2023-05-06T12:35:07.717Z,22.82
2023-05-06T12:36:07.302Z,22.67
2023-05-06T12:37:07.272Z,22.62
2023-05-06T12:38:07.182Z,22.44
2023-05-06T12:39:07.225Z,22.68
2023-05-06T12:40:07.172Z,23.01
2023-05-06T12:41:07.220Z,23.40
2023-05-06T12:42:07.492Z,23.29
2023-05-06T12:43:07.140Z,23.27
2023-05-06T12:44:07.124Z,23.34
2023-05-06T12:45:07.099Z,23.52
2023-05-06T12:46:07.231Z,23.57
2023-05-06T12:47:07.150Z,23.72
2023-05-06T12:48:07.248Z,24.02
2023-05-06T12:49:07.099Z,24.23
2023-05-06T12:50:07.089Z,24.44
2023-05-06T12:51:07.084Z,24.45
2023-05-06T12:52:07.071Z,24.44
2023-05-06T12:53:07.043Z,24.41
2023-05-06T12:54:07.161Z,24.16
2023-05-06T12:55:07.313Z,24.13
2023-05-06T12:56:07.026Z,23.92
2023-05-06T12:57:07.095Z,23.42
2023-05-06T12:58:06.996Z,23.07
2023-05-06T12:59:07.006Z,22.96
2023-05-06T13:00:07.043Z,22.93
2023-05-06T13:01:07.066Z,22.93